San Pedro, Belize

1:12 PM CST on March 04, 2015 (GMT -0600)
Mosquito Coast | Change Station
CLOSE
Current Station
Personal Weather Station
Location: San Pedro Town, Ambergris Caye
Elevation: 40 ft
Nearby Weather Stations

Elev 40 ft 17.89 °N, 87.98 °W | Updated 2 minutes ago

Mostly Cloudy
Mostly Cloudy
82.1 °F
Feels Like 89 °F
N
10.0
Wind Variable Wind from SE
Gusts 16.0 mph

Today
High -- | Low -- °F
--% Chance of Precip.
Yesterday
High -- | Low -- °F
Precip. -- in
6:08 AM 5:58 PM
Waxing Gibbous, 99% visible
Pressure 29.93 in
Visibility 6.2 miles
Clouds Mostly Cloudy 2400 ft
Heat Index 89 °F
Dew Point 75 °F
Humidity 80%
Rainfall 0.00 in
Snow Depth Not available.
UV 8 out of 12
Pollen Not available.
Air Quality Not available.
Flu Activity Not available.
METAR MZBZ 041900Z 11008KT 9999 BKN024 30/23 A2993 Q1013 NOSIG

More Conditions Fewer Conditions

Pressure 29.93 in
Visibility 6.2 miles
Clouds Mostly Cloudy 2400 ft
Heat Index 89 °F
Dew Point 75 °F
Humidity 80%
Rainfall 0.00 in
Snow Depth Not available.
UV 8 out of 12
Pollen Not available.
Air Quality Not available.
Flu Activity Not available.
METAR MZBZ 041900Z 11008KT 9999 BKN024 30/23 A2993 Q1013 NOSIG

More Conditions Fewer Conditions

10-Day Weather Forecast

Almanac

Astronomy

Mar. 04, 2015 Rise Set
Actual Time
Civil Twilight
Nautical Twilight
Astronomical Twilight
Moon
Length of Visible Light
Length of Day
Tomorrow will be .
, % of the Moon is Illuminated

Today's Extremes

Country Highs Country Lows

Community

WunderPhotos

Upload Photos

1,802,543 photos uploaded!

WunderBlogs® & News

Nearby

Air Quality

  Air Quality AQ Index Pollutant
Not available.

Snow Depth

Station Depth Elevation

Earthquake Activity

City Distance Mag. Time & Date
Minimum magnitude displayed is 2.5.

Coastal Water Temperatures

Place Temperature

Nearby Weather Stations